| time (UTC) | temp C | wind direction | speed KPH | gust KPH | rain 1hr cm | rain 24hr cm | rain mn cm | humidity % | barometer mb |
| 20260507204527 | 17 | 209 | 0.0 | 1.6 | 0.00 | 0.00 | 0.00 | 69 | 1012.8 |
| 20260507203527 | 18 | 209 | 0.0 | 0.0 | 0.00 | 0.00 | 0.00 | 67 | 1012.5 |
| 20260507202527 | 18 | 209 | 0.0 | 0.0 | 0.00 | 0.00 | 0.00 | 66 | 1012.6 |
| 20260507201527 | 18 | 209 | 0.0 | 0.0 | 0.00 | 0.00 | 0.00 | 64 | 1012.5 |
| 20260507200527 | 18 | 209 | 0.0 | 0.0 | 0.00 | 0.00 | 0.00 | 64 | 1012.4 |
| 20260507195527 | 18 | 209 | 0.0 | 0.0 | 0.00 | 0.00 | 0.00 | 64 | 1012.3 |
| 20260507194527 | 19 | 209 | 0.0 | 0.0 | 0.00 | 0.00 | 0.00 | 62 | 1012.1 |
| 20260507193527 | 19 | 209 | 0.0 | 0.0 | 0.00 | 0.00 | 0.00 | 61 | 1011.9 |
| 20260507192527 | 20 | 209 | 0.0 | 0.0 | 0.00 | 0.00 | 0.00 | 60 | 1011.9 |
| 20260507191527 | 20 | 209 | 0.0 | 1.6 | 0.00 | 0.00 | 0.00 | 59 | 1011.8 |
| 20260507190527 | 20 | 209 | 0.0 | 0.0 | 0.00 | 0.00 | 0.00 | 58 | 1011.7 |
| 20260507185527 | 20 | 209 | 0.0 | 0.0 | 0.00 | 0.00 | 0.00 | 56 | 1011.7 |
| 20260507184527 | 21 | 209 | 0.0 | 1.6 | 0.00 | 0.00 | 0.00 | 56 | 1011.5 |
| 20260507183527 | 21 | 209 | 0.0 | 1.6 | 0.00 | 0.00 | 0.00 | 54 | 1011.4 |
| 20260507182527 | 21 | 210 | 1.6 | 4.8 | 0.00 | 0.00 | 0.00 | 53 | 1011.4 |
| 20260507181527 | 22 | 188 | 3.2 | 4.8 | 0.00 | 0.00 | 0.00 | 51 | 1011.3 |
| 20260507180527 | 22 | 183 | 1.6 | 4.8 | 0.00 | 0.00 | 0.00 | 50 | 1011.2 |
| 20260507175527 | 22 | 193 | 3.2 | 4.8 | 0.00 | 0.00 | 0.00 | 49 | 1010.8 |
| 20260507174527 | 22 | 205 | 1.6 | 3.2 | 0.00 | 0.00 | 0.00 | 48 | 1010.7 |
| 20260507173527 | 22 | 181 | 1.6 | 3.2 | 0.00 | 0.00 | 0.00 | 47 | 1010.8 |
| 20260507172527 | 22 | 204 | 3.2 | 4.8 | 0.00 | 0.00 | 0.00 | 47 | 1010.8 |
| 20260507171527 | 22 | 118 | 0.0 | 1.6 | 0.00 | 0.00 | 0.00 | 47 | 1010.8 |
| 20260507170527 | 22 | 176 | 3.2 | 4.8 | 0.00 | 0.00 | 0.00 | 47 | 1010.7 |
| 20260507165527 | 23 | 195 | 4.8 | 12.9 | 0.00 | 0.00 | 0.00 | 47 | 1010.7 |
| 20260507164527 | 22 | 207 | 3.2 | 4.8 | 0.00 | 0.00 | 0.00 | 47 | 1010.8 |
| 20260507163527 | 22 | 182 | 1.6 | 4.8 | 0.00 | 0.00 | 0.00 | 49 | 1010.7 |
| 20260507162527 | 22 | 174 | 1.6 | 4.8 | 0.00 | 0.00 | 0.00 | 49 | 1010.7 |
| 20260507161527 | 22 | 149 | 1.6 | 4.8 | 0.00 | 0.00 | 0.00 | 48 | 1010.6 |
| 20260507160526 | 22 | 276 | 3.2 | 4.8 | 0.00 | 0.00 | 0.00 | 47 | 1010.6 |
| 20260507155526 | 22 | 237 | 4.8 | 4.8 | 0.00 | 0.00 | 0.00 | 45 | 1010.7 |
| 20260507154527 | 22 | 241 | 4.8 | 9.7 | 0.00 | 0.00 | 0.00 | 46 | 1010.7 |
| 20260507153526 | 22 | 190 | 3.2 | 4.8 | 0.00 | 0.00 | 0.00 | 50 | 1010.8 |
| 20260507152526 | 22 | 281 | 4.8 | 9.7 | 0.00 | 0.00 | 0.00 | 49 | 1010.8 |
| 20260507151526 | 22 | 153 | 3.2 | 8.0 | 0.00 | 0.00 | 0.00 | 52 | 1010.7 |
| 20260507150526 | 22 | 213 | 8.0 | 9.7 | 0.00 | 0.00 | 0.00 | 52 | 1010.7 |
| 20260507145526 | 22 | 202 | 9.7 | 11.3 | 0.00 | 0.00 | 0.00 | 50 | 1010.8 |
| 20260507144526 | 22 | 264 | 8.0 | 11.3 | 0.00 | 0.00 | 0.00 | 51 | 1010.7 |
| 20260507143526 | 22 | 213 | 4.8 | 11.3 | 0.00 | 0.00 | 0.00 | 51 | 1010.8 |
| 20260507142526 | 22 | 275 | 9.7 | 11.3 | 0.00 | 0.00 | 0.00 | 51 | 1010.9 |
| 20260507141526 | 21 | 292 | 8.0 | 8.0 | 0.00 | 0.00 | 0.00 | 51 | 1011.1 |
| 20260507140526 | 21 | 260 | 12.9 | 16.1 | 0.00 | 0.00 | 0.00 | 50 | 1011.1 |
| 20260507135526 | 21 | 277 | 8.0 | 16.1 | 0.00 | 0.00 | 0.00 | 52 | 1011.2 |
| 20260507134526 | 21 | 257 | 1.6 | 8.0 | 0.00 | 0.00 | 0.00 | 51 | 1011.3 |
| 20260507133526 | 21 | 245 | 8.0 | 11.3 | 0.00 | 0.00 | 0.00 | 51 | 1011.5 |
| 20260507132526 | 21 | 279 | 8.0 | 11.3 | 0.00 | 0.00 | 0.00 | 50 | 1011.5 |
| 20260507131526 | 21 | 285 | 8.0 | 11.3 | 0.00 | 0.00 | 0.00 | 52 | 1011.6 |
| 20260507130526 | 21 | 291 | 4.8 | 9.7 | 0.00 | 0.00 | 0.00 | 52 | 1011.7 |
| 20260507125526 | 21 | 249 | 4.8 | 12.9 | 0.00 | 0.00 | 0.00 | 51 | 1011.7 |
| 20260507124526 | 21 | 255 | 8.0 | 9.7 | 0.00 | 0.00 | 0.00 | 51 | 1011.7 |
| 20260507123526 | 21 | 301 | 4.8 | 12.9 | 0.00 | 0.00 | 0.00 | 53 | 1011.8 |
| 20260507122526 | 20 | 0 | 0.0 | 4.8 | 0.00 | 0.00 | 0.00 | 52 | 1011.8 |
| 20260507121526 | 21 | 265 | 3.2 | 4.8 | 0.00 | 0.00 | 0.00 | 52 | 1011.9 |
| 20260507120526 | 21 | 199 | 4.8 | 9.7 | 0.00 | 0.00 | 0.00 | 52 | 1012.1 |
| 20260507115526 | 21 | 252 | 3.2 | 4.8 | 0.00 | 0.00 | 0.00 | 51 | 1012.1 |
| 20260507114526 | 21 | 273 | 9.7 | 16.1 | 0.00 | 0.00 | 0.00 | 52 | 1012.1 |
| 20260507113526 | 20 | 218 | 3.2 | 8.0 | 0.00 | 0.00 | 0.00 | 55 | 1012.1 |
| 20260507112526 | 20 | 347 | 3.2 | 4.8 | 0.00 | 0.00 | 0.00 | 57 | 1012.3 |
| 20260507111526 | 20 | 52 | 4.8 | 8.0 | 0.00 | 0.00 | 0.00 | 56 | 1012.3 |
| 20260507110526 | 20 | 315 | 4.8 | 11.3 | 0.00 | 0.00 | 0.00 | 55 | 1012.5 |
| 20260507105526 | 20 | 340 | 4.8 | 8.0 | 0.00 | 0.00 | 0.00 | 56 | 1012.5 |
| 20260507104526 | 20 | 306 | 3.2 | 4.8 | 0.00 | 0.00 | 0.00 | 53 | 1012.6 |
| 20260507103526 | 20 | 312 | 11.3 | 14.5 | 0.00 | 0.00 | 0.00 | 56 | 1012.7 |
| 20260507102526 | 19 | 299 | 8.0 | 12.9 | 0.00 | 0.00 | 0.00 | 55 | 1012.7 |
| 20260507101526 | 19 | 8 | 1.6 | 8.0 | 0.00 | 0.00 | 0.00 | 59 | 1012.8 |
| 20260507100526 | 18 | 324 | 8.0 | 11.3 | 0.00 | 0.00 | 0.00 | 60 | 1012.8 |
| 20260507095526 | 18 | 31 | 8.0 | 11.3 | 0.00 | 0.00 | 0.00 | 65 | 1012.8 |
| 20260507094526 | 18 | 337 | 3.2 | 4.8 | 0.00 | 0.00 | 0.00 | 65 | 1012.9 |
| 20260507093526 | 17 | 310 | 3.2 | 3.2 | 0.00 | 0.00 | 0.00 | 69 | 1012.9 |
| 20260507092526 | 17 | 6 | 8.0 | 9.7 | 0.00 | 0.00 | 0.00 | 72 | 1012.8 |
| 20260507091526 | 17 | 321 | 9.7 | 12.9 | 0.00 | 0.00 | 0.00 | 75 | 1012.8 |
| 20260507090526 | 16 | 328 | 8.0 | 9.7 | 0.00 | 0.00 | 0.00 | 76 | 1012.8 |
| 20260507085526 | 17 | 328 | 4.8 | 12.9 | 0.00 | 0.00 | 0.00 | 71 | 1012.8 |
| 20260507084526 | 17 | 319 | 3.2 | 4.8 | 0.00 | 0.00 | 0.00 | 68 | 1012.7 |
| 20260507083526 | 18 | 313 | 3.2 | 8.0 | 0.00 | 0.10 | 0.00 | 66 | 1012.7 |
| 20260507082526 | 18 | 351 | 3.2 | 4.8 | 0.00 | 0.30 | 0.00 | 63 | 1012.8 |
| 20260507081526 | 18 | 17 | 1.6 | 3.2 | 0.00 | 0.36 | 0.00 | 65 | 1012.8 |
| 20260507080526 | 17 | 343 | 3.2 | 4.8 | 0.00 | 0.41 | 0.00 | 66 | 1012.8 |
| 20260507075526 | 17 | 165 | 1.6 | 4.8 | 0.00 | 0.48 | 0.00 | 67 | 1012.7 |
| 20260507074526 | 17 | 57 | 1.6 | 1.6 | 0.00 | 0.51 | 0.00 | 68 | 1012.6 |
| 20260507073526 | 16 | 67 | 4.8 | 4.8 | 0.00 | 0.51 | 0.00 | 68 | 1012.5 |
| 20260507072526 | 16 | 11 | 3.2 | 4.8 | 0.00 | 0.51 | 0.00 | 70 | 1012.4 |
| 20260507071526 | 16 | 49 | 1.6 | 4.8 | 0.00 | 0.51 | 0.00 | 70 | 1012.5 |
| 20260507070526 | 16 | 35 | 4.8 | 4.8 | 0.00 | 0.51 | 0.00 | 72 | 1012.5 |
| 20260507065526 | 16 | 350 | 1.6 | 1.6 | 0.00 | 0.51 | 0.00 | 74 | 1012.3 |
| 20260507064526 | 15 | 36 | 4.8 | 4.8 | 0.00 | 0.51 | 0.00 | 74 | 1012.2 |
| 20260507063526 | 15 | 352 | 1.6 | 4.8 | 0.00 | 0.51 | 0.00 | 77 | 1012.1 |
| 20260507062526 | 14 | 232 | 0.0 | 1.6 | 0.00 | 0.53 | 0.00 | 79 | 1012.2 |
| 20260507061526 | 13 | 240 | 1.6 | 4.8 | 0.00 | 0.53 | 0.00 | 80 | 1012.1 |
| 20260507060526 | 13 | 332 | 0.0 | 3.2 | 0.00 | 0.53 | 0.00 | 82 | 1012.0 |
| 20260507055526 | 13 | 327 | 1.6 | 4.8 | 0.00 | 0.53 | 0.00 | 82 | 1011.9 |
| 20260507054526 | 13 | 300 | 0.0 | 1.6 | 0.00 | 0.53 | 0.00 | 83 | 1011.9 |
| 20260507053526 | 13 | 300 | 0.0 | 1.6 | 0.00 | 0.53 | 0.00 | 83 | 1011.9 |
| 20260507052526 | 13 | 300 | 0.0 | 0.0 | 0.00 | 0.53 | 0.00 | 83 | 1011.8 |
| 20260507051526 | 12 | 295 | 1.6 | 3.2 | 0.00 | 0.53 | 0.00 | 83 | 1011.6 |
| 20260507050526 | 12 | 319 | 0.0 | 1.6 | 0.00 | 0.53 | 0.00 | 84 | 1011.4 |
| 20260507045526 | 12 | 319 | 0.0 | 3.2 | 0.00 | 0.53 | 0.00 | 84 | 1011.3 |
| 20260507044526 | 12 | 319 | 0.0 | 0.0 | 0.00 | 0.53 | 0.00 | 84 | 1011.1 |
| 20260507043526 | 12 | 329 | 1.6 | 3.2 | 0.00 | 0.53 | 0.00 | 84 | 1011.0 |
| 20260507042526 | 12 | 329 | 0.0 | 1.6 | 0.00 | 0.56 | 0.00 | 84 | 1011.0 |
| 20260507041526 | 12 | 13 | 1.6 | 3.2 | 0.00 | 0.58 | 0.00 | 84 | 1010.8 |
| 20260507040526 | 12 | 355 | 1.6 | 3.2 | 0.00 | 0.71 | 0.00 | 84 | 1010.7 |
| 20260507035526 | 12 | 333 | 1.6 | 4.8 | 0.00 | 0.84 | 0.00 | 84 | 1010.6 |
| 20260507034526 | 12 | 329 | 1.6 | 3.2 | 0.00 | 0.91 | 0.00 | 84 | 1010.6 |
| 20260507033526 | 12 | 330 | 1.6 | 4.8 | 0.00 | 0.97 | 0.00 | 84 | 1010.6 |
| 20260507032526 | 12 | 5 | 1.6 | 3.2 | 0.00 | 1.02 | 0.00 | 84 | 1010.5 |
| 20260507031526 | 12 | 350 | 1.6 | 4.8 | 0.00 | 1.04 | 0.00 | 83 | 1010.6 |
| 20260507030526 | 12 | 14 | 1.6 | 4.8 | 0.00 | 1.07 | 0.00 | 84 | 1010.5 |
| 20260507025526 | 12 | 319 | 4.8 | 8.0 | 0.00 | 1.09 | 0.00 | 83 | 1010.6 |
| 20260507024526 | 12 | 324 | 3.2 | 4.8 | 0.00 | 1.09 | 0.00 | 83 | 1010.5 |
| 20260507023526 | 12 | 336 | 1.6 | 3.2 | 0.00 | 1.12 | 0.00 | 83 | 1010.4 |
| 20260507022526 | 12 | 323 | 1.6 | 3.2 | 0.00 | 1.14 | 0.00 | 83 | 1010.5 |
| 20260507021526 | 13 | 346 | 1.6 | 3.2 | 0.00 | 1.17 | 0.00 | 83 | 1010.4 |
| 20260507020526 | 13 | 337 | 3.2 | 3.2 | 0.00 | 1.19 | 0.00 | 82 | 1010.4 |
| 20260507015526 | 13 | 351 | 1.6 | 4.8 | 0.00 | 1.22 | 0.00 | 82 | 1010.3 |
| 20260507014526 | 13 | 307 | 3.2 | 3.2 | 0.00 | 1.22 | 0.00 | 82 | 1010.3 |
| 20260507013525 | 13 | 304 | 3.2 | 4.8 | 0.00 | 1.22 | 0.00 | 81 | 1010.2 |
| 20260507012525 | 13 | 317 | 3.2 | 4.8 | 0.00 | 1.22 | 0.00 | 81 | 1010.3 |
| 20260507011525 | 13 | 320 | 4.8 | 4.8 | 0.00 | 1.22 | 0.00 | 80 | 1010.1 |
| 20260507010525 | 13 | 331 | 8.0 | 11.3 | 0.00 | 1.22 | 0.00 | 80 | 1010.2 |
| 20260507005525 | 13 | 319 | 11.3 | 16.1 | 0.00 | 1.22 | 0.00 | 79 | 1010.2 |
| 20260507004525 | 13 | 330 | 4.8 | 8.0 | 0.00 | 1.22 | 0.00 | 78 | 1010.1 |
| 20260507003525 | 13 | 327 | 4.8 | 8.0 | 0.00 | 1.22 | 0.00 | 78 | 1010.1 |
| 20260507002525 | 13 | 338 | 4.8 | 8.0 | 0.00 | 1.22 | 0.00 | 79 | 1010.2 |
| 20260507001525 | 13 | 326 | 3.2 | 8.0 | 0.00 | 1.22 | 0.00 | 79 | 1010.2 |
| 20260507000525 | 13 | 331 | 3.2 | 4.8 | 0.00 | 1.22 | 0.00 | 80 | 1010.3 |
| 20260506235525 | 13 | 335 | 4.8 | 4.8 | 0.00 | 1.22 | 0.00 | 80 | 1010.3 |
| 20260506234525 | 13 | 324 | 1.6 | 4.8 | 0.00 | 1.22 | 0.00 | 80 | 1010.2 |
| 20260506233525 | 13 | 326 | 4.8 | 4.8 | 0.00 | 1.22 | 0.00 | 81 | 1010.1 |
| 20260506232525 | 13 | 324 | 1.6 | 4.8 | 0.00 | 1.22 | 0.00 | 81 | 1010.0 |
| 20260506231525 | 13 | 338 | 1.6 | 4.8 | 0.00 | 1.22 | 0.00 | 82 | 1010.0 |
| 20260506230525 | 13 | 328 | 1.6 | 4.8 | 0.00 | 1.22 | 0.00 | 82 | 1009.8 |
| 20260506225525 | 13 | 304 | 1.6 | 1.6 | 0.00 | 1.22 | 0.00 | 82 | 1009.7 |
| 20260506224525 | 13 | 265 | 0.0 | 1.6 | 0.00 | 1.22 | 0.00 | 82 | 1009.7 |
| 20260506223525 | 13 | 265 | 1.6 | 1.6 | 0.00 | 1.22 | 0.00 | 81 | 1009.7 |
| 20260506222525 | 13 | 265 | 0.0 | 0.0 | 0.00 | 1.22 | 0.00 | 81 | 1009.8 |
| 20260506221525 | 13 | 265 | 1.6 | 1.6 | 0.00 | 1.22 | 0.00 | 80 | 1009.9 |
| 20260506220525 | 13 | 321 | 0.0 | 1.6 | 0.00 | 1.22 | 0.00 | 80 | 1009.9 |
| 20260506215525 | 13 | 323 | 1.6 | 3.2 | 0.00 | 1.22 | 1.22 | 80 | 1009.8 |
| 20260506214525 | 13 | 321 | 0.0 | 1.6 | 0.00 | 1.22 | 1.22 | 80 | 1009.8 |
| 20260506213525 | 13 | 327 | 1.6 | 1.6 | 0.00 | 1.22 | 1.22 | 80 | 1009.5 |
| 20260506212525 | 13 | 16 | 1.6 | 1.6 | 0.00 | 1.22 | 1.22 | 79 | 1009.7 |
| 20260506211525 | 13 | 351 | 1.6 | 3.2 | 0.00 | 1.22 | 1.22 | 79 | 1009.5 |
| 20260506210525 | 13 | 12 | 1.6 | 3.2 | 0.00 | 1.22 | 1.22 | 79 | 1009.5 |
| 20260506205525 | 13 | 0 | 0.0 | 4.8 | 0.00 | 1.22 | 1.22 | 79 | 1009.5 |